• Join FlightAware (Why Join?)
  • Login
  • US Flag 
06:33AM EST


 

Airport Tracker/Info


-or-


 

Live Flight TrackerFlight Track Log ✈ N762NC ✈ 17-Oct-2013 ✈ KAGS - KATL

Flight Track Log - Related Links

Times and Time Zones

All times are in EDT time to prevent confusion due to time zone crossing. See the N762NC flight status page for this flight to view local times or setup timezone preferences in your user account.

Time Position Orientation Groundspeed Altitude Reporting Facility
EDT Latitude Longitude Course Direction KTS MPH feet Rate Location/Type
08:39AM 33.4564 -82.0294 299° West 221 254 3,400  Level Atlanta Center
08:40AM 33.4450 -82.1069 260° West 196 226 5,100 2,250 Climbing Atlanta Center
08:41AM 33.4110 -82.3151 239° Southwest  Level Estimated
08:41AM 33.4339 -82.1942 261° West 223 257 7,900  Level Atlanta Center
08:42AM 33.4831 -82.3347 347° North  Level FlightAware Approximate
08:42AM 33.4247 -82.2817 263° West 252 290 10,200  Level Atlanta Center
08:43AM 33.4902 -82.4229 242° Southwest  Level Estimated
08:43AM 33.4033 -82.3889 257° West 309 356 11,600  Level Atlanta Center
08:44AM 33.5259 -82.5005 299° West  Level FlightAware Approximate
08:44AM 33.3961 -82.4911 265° West 316 364 14,000  Level Atlanta Center
08:45AM 33.3747 -82.6133 258° West 327 376 16,000 2,100 Climbing Atlanta Center
08:46AM 33.3572 -82.7231 259° West 339 390 18,200 1,900 Climbing Atlanta Center
08:47AM 33.3375 -82.8378 258° West 346 398 19,800 1,650 Climbing Atlanta Center
08:48AM 33.3178 -82.9525 258° West 357 411 21,500 1,100 Climbing Atlanta Center
08:49AM 33.2936 -83.0744 257° West 367 422 22,000 250 Climbing Atlanta Center
08:50AM 33.2758 -83.1989 260° West 380 437 22,000 -1,400 Level Atlanta Center
08:51AM 33.2558 -83.3233 259° West 385 443 19,200 -3,000 Descending Atlanta Center
08:52AM 33.2417 -83.4478 262° West 390 449 16,000 -3,050 Descending Atlanta Center
08:53AM 33.2278 -83.5719 262° West 390 449 13,100 -2,000 Descending Atlanta Center
08:54AM 33.2175 -83.6764 263° West 374 430 12,000 -550 Descending Atlanta Center
08:55AM 33.2075 -83.7906 264° West 359 413 12,000 -150 Level Atlanta Center
08:56AM 33.2722 -83.8822 310° West 336 387 11,700 -750 Descending Atlanta Center
08:57AM 33.3539 -83.9369 331° Northwest 320 368 10,500 -1,050 Descending Atlanta Center
08:58AM 33.4414 -83.9317 North 307 353 9,600 -700 Descending Atlanta Center
08:59AM 33.5144 -83.9342 358° North 280 322 9,100 -950 Descending Atlanta Center
09:00AM 33.5833 -83.9392 357° North 245 282 7,700 -1,050 Descending Atlanta Center
09:01AM 33.6314 -83.9964 315° West 213 245 7,000 -550 Descending Atlanta Center
09:02AM 33.6294 -84.0661 268° West 188 216 6,600 -769 Descending Atlanta Center
09:04AM 33.6333 -84.1667 273° West 180 207 5,000 -962 Descending Atlanta TRACON
09:05AM 33.6333 -84.2167 270° West 171 197 4,100 -900 Descending Atlanta TRACON
09:06AM 33.6333 -84.2833 270° West 173 199 3,200 -900 Descending Atlanta TRACON
09:07AM 33.6333 -84.3333 270° West 164 189 2,300 -800 Descending Atlanta TRACON
09:08AM 33.6333 -84.3833 270° West 127 146 1,600 -700 Descending Atlanta TRACON